createdAt,value
2017-11-27T00:02:10.506Z,3.60
2017-11-27T00:04:37.993Z,4.17
2017-11-27T00:07:05.513Z,4.50
2017-11-27T00:09:33.001Z,4.03
2017-11-27T00:12:00.490Z,4.13
2017-11-27T00:14:28.006Z,3.87
2017-11-27T00:16:56.254Z,3.50
2017-11-27T00:19:23.743Z,4.50
2017-11-27T00:21:52.001Z,3.50
2017-11-27T00:24:19.494Z,3.97
2017-11-27T00:26:47.974Z,4.53
2017-11-27T00:29:15.467Z,3.30
2017-11-27T00:31:43.713Z,3.13
2017-11-27T00:34:11.217Z,4.73
2017-11-27T00:36:38.705Z,4.37
2017-11-27T00:39:06.986Z,3.60
2017-11-27T00:41:35.250Z,2.97
2017-11-27T00:44:02.742Z,4.10
2017-11-27T00:46:30.238Z,6.10
2017-11-27T00:48:57.722Z,3.33
2017-11-27T00:51:25.293Z,2.90
2017-11-27T00:53:52.790Z,3.83
2017-11-27T00:56:29.162Z,3.57
2017-11-27T00:58:56.664Z,3.60
2017-11-27T01:01:24.157Z,3.73
2017-11-27T01:03:52.445Z,3.40
2017-11-27T01:06:20.685Z,3.27
2017-11-27T01:08:48.201Z,2.80
2017-11-27T01:11:16.454Z,4.20
2017-11-27T01:13:43.934Z,3.73
2017-11-27T01:16:11.435Z,3.80
2017-11-27T01:18:39.687Z,3.33
2017-11-27T01:21:07.194Z,3.40
2017-11-27T01:23:35.441Z,4.10
2017-11-27T01:26:02.932Z,3.33
2017-11-27T01:28:30.433Z,4.37
2017-11-27T01:30:57.920Z,3.50
2017-11-27T01:33:25.444Z,3.50
2017-11-27T01:35:52.937Z,3.40
2017-11-27T01:38:21.181Z,4.17
2017-11-27T01:40:48.686Z,3.93
2017-11-27T01:43:16.935Z,4.40
2017-11-27T01:45:44.450Z,3.73
2017-11-27T01:48:12.703Z,4.30
2017-11-27T01:50:41.090Z,3.10
2017-11-27T01:53:08.586Z,3.43
2017-11-27T01:55:36.074Z,3.83
2017-11-27T01:58:04.353Z,3.80
2017-11-27T02:00:31.854Z,3.60
2017-11-27T02:02:59.333Z,3.93
2017-11-27T02:05:26.832Z,4.47
2017-11-27T02:07:54.318Z,3.60
2017-11-27T02:10:21.841Z,4.73
2017-11-27T02:12:49.492Z,4.87
2017-11-27T02:15:17.759Z,4.00
2017-11-27T02:17:45.270Z,3.03
2017-11-27T02:20:12.749Z,4.07
2017-11-27T02:22:40.271Z,4.10
2017-11-27T02:25:07.757Z,3.37
2017-11-27T02:27:36.022Z,4.00
2017-11-27T02:30:03.535Z,2.90
2017-11-27T02:32:31.032Z,4.40
2017-11-27T02:34:58.530Z,4.00
2017-11-27T02:37:26.016Z,3.00
2017-11-27T02:39:53.510Z,4.27
2017-11-27T02:42:21.787Z,4.73
2017-11-27T02:44:50.035Z,3.33
2017-11-27T02:47:18.266Z,5.00
2017-11-27T02:49:45.798Z,4.17
2017-11-27T02:52:13.277Z,3.87
2017-11-27T02:54:41.221Z,4.07
2017-11-27T02:57:08.710Z,3.97
2017-11-27T02:59:36.231Z,3.97
2017-11-27T03:02:03.823Z,3.27
2017-11-27T03:04:31.303Z,4.00
2017-11-27T03:06:58.806Z,3.90
2017-11-27T03:09:26.290Z,4.20
2017-11-27T03:11:53.802Z,5.13
2017-11-27T03:14:21.294Z,3.93
2017-11-27T03:16:48.779Z,2.93
2017-11-27T03:19:16.277Z,3.57
2017-11-27T03:21:43.766Z,4.23
2017-11-27T03:24:12.033Z,3.40
2017-11-27T03:26:39.518Z,3.33
2017-11-27T03:29:07.008Z,2.90
2017-11-27T03:31:34.506Z,3.90
2017-11-27T03:34:01.991Z,3.30
2017-11-27T03:36:29.500Z,3.67
2017-11-27T03:38:56.975Z,3.50
2017-11-27T03:41:25.225Z,3.20
2017-11-27T03:43:52.723Z,3.30
2017-11-27T03:46:20.237Z,4.00
2017-11-27T03:48:47.739Z,4.10
2017-11-27T03:51:15.222Z,3.27
2017-11-27T03:53:42.704Z,2.87
2017-11-27T03:56:10.198Z,4.30
2017-11-27T03:58:38.452Z,3.30
2017-11-27T04:01:05.956Z,3.27
2017-11-27T04:03:34.202Z,3.40
2017-11-27T04:06:01.683Z,3.50
2017-11-27T04:08:29.182Z,3.43
2017-11-27T04:10:57.435Z,3.40
2017-11-27T04:13:24.932Z,3.77
2017-11-27T04:15:53.195Z,3.53
2017-11-27T04:18:21.581Z,4.10
2017-11-27T04:20:49.109Z,3.30
2017-11-27T04:23:16.610Z,3.53
2017-11-27T04:25:44.103Z,3.20
2017-11-27T04:28:12.422Z,4.43
2017-11-27T04:30:40.686Z,4.00
2017-11-27T04:33:08.185Z,2.63
2017-11-27T04:35:36.446Z,3.40
2017-11-27T04:38:03.934Z,2.57
2017-11-27T04:40:32.212Z,2.60
2017-11-27T04:42:59.698Z,3.23
2017-11-27T04:45:27.970Z,2.23
2017-11-27T04:47:56.229Z,3.40
2017-11-27T04:50:23.729Z,2.37
2017-11-27T04:52:51.243Z,2.90
2017-11-27T04:55:18.738Z,1.90
2017-11-27T04:57:46.262Z,3.27
2017-11-27T05:00:14.506Z,2.07
2017-11-27T05:02:41.991Z,1.90
2017-11-27T05:05:09.493Z,3.10
2017-11-27T05:07:37.750Z,2.37
2017-11-27T05:10:05.276Z,2.07
2017-11-27T05:12:32.758Z,2.40
2017-11-27T05:15:00.270Z,1.93
2017-11-27T05:17:27.769Z,2.13
2017-11-27T05:19:56.014Z,2.40
2017-11-27T05:22:23.518Z,2.47
2017-11-27T05:24:51.766Z,2.03
2017-11-27T05:27:19.255Z,2.07
2017-11-27T05:29:46.762Z,2.30
2017-11-27T05:32:14.262Z,3.33
2017-11-27T05:34:41.746Z,3.10
2017-11-27T05:37:09.268Z,2.23
2017-11-27T05:39:37.531Z,4.57
2017-11-27T05:42:05.018Z,5.70
2017-11-27T05:44:33.311Z,2.50
2017-11-27T05:47:01.586Z,5.03
2017-11-27T05:49:29.089Z,3.40
2017-11-27T05:51:56.617Z,6.60
2017-11-27T05:54:24.103Z,2.93
2017-11-27T05:56:51.583Z,2.80
2017-11-27T05:59:19.099Z,5.70
2017-11-27T06:01:46.582Z,3.07
2017-11-27T06:04:14.095Z,2.80
2017-11-27T06:06:42.350Z,2.50
2017-11-27T06:09:09.844Z,3.27
2017-11-27T06:11:38.248Z,2.97
2017-11-27T06:14:06.503Z,3.57
2017-11-27T06:16:34.014Z,3.17
2017-11-27T06:19:02.274Z,2.20
2017-11-27T06:21:29.766Z,2.83
2017-11-27T06:23:58.034Z,2.83
2017-11-27T06:26:25.532Z,3.30
2017-11-27T06:28:53.829Z,2.47
2017-11-27T06:31:21.314Z,3.27
2017-11-27T06:33:48.817Z,3.83
2017-11-27T06:36:16.337Z,3.77
2017-11-27T06:38:43.829Z,4.30
2017-11-27T06:41:11.359Z,2.70
2017-11-27T06:43:39.755Z,3.57
2017-11-27T06:46:08.018Z,4.40
2017-11-27T06:48:35.525Z,3.37
2017-11-27T06:51:03.781Z,3.90
2017-11-27T06:53:31.292Z,3.20
2017-11-27T06:55:58.809Z,3.80
2017-11-27T06:58:26.299Z,3.40
2017-11-27T07:00:53.801Z,4.50
2017-11-27T07:03:21.289Z,3.77
2017-11-27T07:05:48.798Z,5.00
2017-11-27T07:08:16.292Z,3.17
2017-11-27T07:10:44.547Z,4.23
2017-11-27T07:13:12.044Z,3.50
2017-11-27T07:15:39.522Z,3.90
2017-11-27T07:18:07.170Z,4.07
2017-11-27T07:20:34.664Z,3.87
2017-11-27T07:23:02.919Z,3.70
2017-11-27T07:25:30.427Z,3.40
2017-11-27T07:27:58.678Z,5.00
2017-11-27T07:30:26.185Z,4.07
2017-11-27T07:32:54.431Z,4.30
2017-11-27T07:35:21.917Z,3.43
2017-11-27T07:37:55.155Z,4.43
2017-11-27T07:40:23.410Z,4.17
2017-11-27T07:42:50.910Z,3.90
2017-11-27T07:45:19.190Z,3.73
2017-11-27T07:47:46.713Z,3.60
2017-11-27T07:50:14.210Z,3.63
2017-11-27T07:52:41.789Z,4.77
2017-11-27T07:55:09.299Z,4.50
2017-11-27T07:57:36.793Z,4.50
2017-11-27T08:00:04.346Z,3.63
2017-11-27T08:02:31.863Z,3.40
2017-11-27T08:04:59.360Z,4.30
2017-11-27T08:07:27.631Z,5.17
2017-11-27T08:09:55.117Z,4.13
2017-11-27T08:12:22.644Z,4.20
2017-11-27T08:14:50.130Z,5.30
2017-11-27T08:17:17.630Z,4.03
2017-11-27T08:19:45.140Z,3.80
2017-11-27T08:22:12.627Z,3.97
2017-11-27T08:24:40.138Z,4.50
2017-11-27T08:27:07.631Z,3.90
2017-11-27T08:29:35.913Z,5.00
2017-11-27T08:32:03.406Z,3.80
2017-11-27T08:34:30.902Z,2.63
2017-11-27T08:36:58.412Z,4.57
2017-11-27T08:39:25.907Z,4.40
2017-11-27T08:41:53.391Z,3.50
2017-11-27T08:44:20.902Z,3.90
2017-11-27T08:46:48.382Z,4.23
2017-11-27T08:49:15.881Z,3.50
2017-11-27T08:51:44.139Z,3.10
2017-11-27T08:54:11.618Z,4.73
2017-11-27T08:56:39.131Z,3.67
2017-11-27T08:59:06.620Z,2.93
2017-11-27T09:01:34.158Z,3.20
2017-11-27T09:04:02.431Z,3.40
2017-11-27T09:06:29.930Z,3.43
2017-11-27T09:08:57.502Z,3.50
2017-11-27T09:11:24.999Z,3.80
2017-11-27T09:13:52.534Z,4.07
2017-11-27T09:16:20.787Z,2.40
2017-11-27T09:18:48.271Z,3.30
2017-11-27T09:21:15.798Z,3.30
2017-11-27T09:23:43.283Z,3.53
2017-11-27T09:26:11.573Z,3.10
2017-11-27T09:28:39.059Z,2.97
2017-11-27T09:31:06.595Z,2.77
2017-11-27T09:33:34.098Z,2.60
2017-11-27T09:36:01.603Z,2.97
2017-11-27T09:38:29.129Z,3.00
2017-11-27T09:40:56.611Z,4.83
2017-11-27T09:43:24.117Z,2.60
2017-11-27T09:45:52.396Z,3.03
2017-11-27T09:48:20.676Z,2.80
2017-11-27T09:50:48.153Z,2.73
2017-11-27T09:53:16.441Z,3.03
2017-11-27T09:55:44.698Z,2.37
2017-11-27T09:58:12.220Z,2.07
2017-11-27T10:00:39.803Z,2.77
2017-11-27T10:03:07.314Z,2.67
2017-11-27T10:05:35.342Z,3.17
2017-11-27T10:08:02.906Z,3.00
2017-11-27T10:10:31.162Z,2.90
2017-11-27T10:12:58.709Z,3.10
2017-11-27T10:15:26.192Z,2.87
2017-11-27T10:17:53.698Z,2.77
2017-11-27T10:20:21.232Z,2.70
2017-11-27T10:22:48.717Z,2.30
2017-11-27T10:25:16.995Z,1.83
2017-11-27T10:27:44.550Z,2.40
2017-11-27T10:30:12.065Z,1.93
2017-11-27T10:32:39.551Z,2.43
2017-11-27T10:35:07.911Z,2.20
2017-11-27T10:37:35.410Z,1.83
2017-11-27T10:40:03.696Z,2.40
2017-11-27T10:42:31.960Z,2.10
2017-11-27T10:44:59.450Z,2.50
2017-11-27T10:47:27.804Z,1.97
2017-11-27T10:49:55.306Z,1.80
2017-11-27T10:52:22.936Z,1.80
2017-11-27T10:54:50.430Z,2.20
2017-11-27T10:57:17.945Z,1.30
2017-11-27T10:59:46.221Z,1.70
2017-11-27T11:02:14.473Z,2.40
2017-11-27T11:04:41.982Z,1.80
2017-11-27T11:07:09.458Z,1.80
2017-11-27T11:09:37.745Z,1.67
2017-11-27T11:12:05.995Z,2.43
2017-11-27T11:14:33.626Z,1.40
2017-11-27T11:17:01.118Z,1.40
2017-11-27T11:19:28.636Z,1.57
2017-11-27T11:21:56.230Z,1.60
2017-11-27T11:24:24.502Z,1.37
2017-11-27T11:26:52.787Z,1.20
2017-11-27T11:29:21.042Z,1.67
2017-11-27T11:31:48.557Z,1.50
2017-11-27T11:34:16.854Z,1.50
2017-11-27T11:36:45.117Z,1.20
2017-11-27T11:39:12.593Z,1.50
2017-11-27T11:41:40.141Z,1.20
2017-11-27T11:44:08.386Z,1.63
2017-11-27T11:46:35.898Z,3.20
2017-11-27T11:49:03.431Z,1.90
2017-11-27T11:51:30.954Z,1.50
2017-11-27T11:53:58.438Z,1.60
2017-11-27T11:56:25.932Z,1.33
2017-11-27T11:58:54.206Z,1.50
2017-11-27T12:01:21.731Z,1.07
2017-11-27T12:03:49.274Z,1.57
2017-11-27T12:06:16.802Z,1.10
2017-11-27T12:08:44.291Z,1.10
2017-11-27T12:11:12.600Z,1.13
2017-11-27T12:13:40.113Z,1.23
2017-11-27T12:16:07.594Z,1.00
2017-11-27T12:18:35.131Z,1.20
2017-11-27T12:21:02.611Z,1.23
2017-11-27T12:23:30.114Z,1.33
2017-11-27T12:25:57.631Z,1.03
2017-11-27T12:28:25.114Z,1.87
2017-11-27T12:30:52.598Z,1.47
2017-11-27T12:33:20.118Z,1.77
2017-11-27T12:35:48.369Z,1.60
2017-11-27T12:38:15.877Z,2.40
2017-11-27T12:40:44.186Z,1.87
2017-11-27T12:43:14.601Z,1.63
2017-11-27T12:45:42.103Z,2.83
2017-11-27T12:48:09.616Z,1.50
2017-11-27T12:50:37.118Z,1.43
2017-11-27T12:53:05.381Z,1.43
2017-11-27T12:55:32.906Z,1.20
2017-11-27T12:58:00.402Z,6.57
2017-11-27T13:00:27.922Z,2.53
2017-11-27T13:02:56.191Z,1.80
2017-11-27T13:05:23.728Z,1.43
2017-11-27T13:07:51.224Z,3.30
2017-11-27T13:10:19.511Z,1.37
2017-11-27T13:12:46.996Z,1.57
2017-11-27T13:15:14.510Z,1.20
2017-11-27T13:17:42.031Z,1.30
2017-11-27T13:20:09.527Z,1.60
2017-11-27T13:22:37.831Z,1.40
2017-11-27T13:25:05.411Z,1.20
2017-11-27T13:27:32.896Z,1.40
2017-11-27T13:30:00.384Z,1.30
2017-11-27T13:32:27.889Z,3.07
2017-11-27T13:34:55.368Z,1.50
2017-11-27T13:37:23.641Z,1.30
2017-11-27T13:39:51.121Z,1.27
2017-11-27T13:42:18.638Z,1.43
2017-11-27T13:44:46.134Z,1.80
2017-11-27T13:47:13.726Z,1.87
2017-11-27T13:49:41.202Z,1.13
2017-11-27T13:52:08.689Z,1.23
2017-11-27T13:54:36.960Z,1.50
2017-11-27T13:57:05.230Z,1.70
2017-11-27T13:59:32.750Z,1.40
2017-11-27T14:02:00.235Z,1.50
2017-11-27T14:04:27.772Z,1.10
2017-11-27T14:06:56.049Z,1.80
2017-11-27T14:09:23.575Z,2.03
2017-11-27T14:11:51.172Z,2.27
2017-11-27T14:14:18.694Z,1.90
2017-11-27T14:16:46.222Z,1.60
2017-11-27T14:19:13.710Z,1.23
2017-11-27T14:21:41.990Z,1.80
2017-11-27T14:24:09.486Z,1.50
2017-11-27T14:26:37.755Z,1.77
2017-11-27T14:29:05.258Z,1.53
2017-11-27T14:31:32.734Z,1.67
2017-11-27T14:34:00.238Z,1.57
2017-11-27T14:36:27.762Z,1.40
2017-11-27T14:38:56.007Z,1.40
2017-11-27T14:41:23.514Z,1.50
2017-11-27T14:43:51.798Z,1.50
2017-11-27T14:46:20.138Z,1.40
2017-11-27T14:48:47.651Z,1.30
2017-11-27T14:51:15.171Z,2.57
2017-11-27T14:53:42.736Z,4.23
2017-11-27T14:56:10.226Z,1.63
2017-11-27T14:58:37.778Z,3.60
2017-11-27T15:01:05.331Z,14.20
2017-11-27T15:03:32.836Z,6.60
2017-11-27T15:06:00.358Z,8.60
2017-11-27T15:08:28.629Z,3.30
2017-11-27T15:10:56.151Z,5.53
2017-11-27T15:13:23.646Z,2.10
2017-11-27T15:15:51.160Z,1.90
2017-11-27T15:18:18.651Z,2.63
2017-11-27T15:20:46.183Z,2.10
2017-11-27T15:23:13.670Z,1.80
2017-11-27T15:25:41.917Z,1.50
2017-11-27T15:28:09.422Z,1.70
2017-11-27T15:30:36.898Z,1.97
2017-11-27T15:33:05.173Z,1.57
2017-11-27T15:35:32.658Z,2.47
2017-11-27T15:38:00.190Z,1.60
2017-11-27T15:40:27.713Z,2.30
2017-11-27T15:42:56.089Z,2.27
2017-11-27T15:45:23.570Z,2.33
2017-11-27T15:47:51.819Z,1.70
2017-11-27T15:50:19.353Z,1.77
2017-11-27T15:52:46.874Z,2.23
2017-11-27T15:55:14.418Z,2.63
2017-11-27T15:57:42.010Z,1.70
2017-11-27T16:00:09.524Z,1.70
2017-11-27T16:02:37.981Z,2.27
2017-11-27T16:05:06.285Z,2.17
2017-11-27T16:07:34.605Z,2.10
2017-11-27T16:10:02.141Z,2.00
2017-11-27T16:12:29.667Z,1.40
2017-11-27T16:14:57.226Z,2.80
2017-11-27T16:17:24.807Z,1.93
2017-11-27T16:19:53.101Z,2.80
2017-11-27T16:22:20.666Z,2.50
2017-11-27T16:24:48.158Z,1.97
2017-11-27T16:27:15.701Z,1.93
2017-11-27T16:29:44.318Z,2.77
2017-11-27T16:32:11.916Z,2.37
2017-11-27T16:34:39.445Z,2.30
2017-11-27T16:37:06.937Z,2.27
2017-11-27T16:39:34.466Z,2.40
2017-11-27T16:42:02.735Z,2.20
2017-11-27T16:44:30.260Z,2.63
2017-11-27T16:46:57.765Z,2.20
2017-11-27T16:49:25.277Z,2.20
2017-11-27T16:51:52.795Z,2.13
2017-11-27T16:54:20.507Z,2.53
2017-11-27T16:56:48.026Z,1.70
2017-11-27T16:59:15.535Z,2.10
2017-11-27T17:01:43.042Z,2.30
2017-11-27T17:04:10.542Z,2.17
2017-11-27T17:06:38.059Z,1.90
2017-11-27T17:09:06.393Z,2.47
2017-11-27T17:11:33.941Z,2.40
2017-11-27T17:14:01.453Z,2.50
2017-11-27T17:16:29.774Z,1.97
2017-11-27T17:18:58.068Z,3.70
2017-11-27T17:21:26.323Z,2.90
2017-11-27T17:23:53.851Z,2.70
2017-11-27T17:26:21.330Z,3.17
2017-11-27T17:28:48.820Z,3.00
2017-11-27T17:31:16.329Z,3.37
2017-11-27T17:33:43.826Z,6.40
2017-11-27T17:36:11.346Z,3.00
2017-11-27T17:38:38.858Z,4.60
2017-11-27T17:41:07.167Z,3.77
2017-11-27T17:43:34.718Z,2.60
2017-11-27T17:46:03.036Z,6.40
2017-11-27T17:48:30.530Z,4.40
2017-11-27T17:50:58.014Z,5.43
2017-11-27T17:53:25.581Z,7.17
2017-11-27T17:55:53.063Z,3.13
2017-11-27T17:58:20.597Z,3.20
2017-11-27T18:00:48.101Z,2.33
2017-11-27T18:03:15.602Z,2.27
2017-11-27T18:05:43.906Z,2.70
2017-11-27T18:08:11.401Z,2.70
2017-11-27T18:10:38.931Z,2.70
2017-11-27T18:13:07.219Z,2.63
2017-11-27T18:15:34.711Z,3.10
2017-11-27T18:18:02.229Z,3.07
2017-11-27T18:20:29.723Z,3.00
2017-11-27T18:22:58.003Z,2.67
2017-11-27T18:25:25.517Z,3.10
2017-11-27T18:27:53.005Z,2.90
2017-11-27T18:30:20.517Z,2.53
2017-11-27T18:32:48.002Z,2.60
2017-11-27T18:35:16.325Z,2.40
2017-11-27T18:37:43.824Z,2.50
2017-11-27T18:40:11.324Z,2.80
2017-11-27T18:42:38.850Z,2.10
2017-11-27T18:45:06.466Z,2.10
2017-11-27T18:47:33.962Z,2.33
2017-11-27T18:50:01.469Z,1.93
2017-11-27T18:52:29.003Z,2.37
2017-11-27T18:54:56.552Z,1.90
2017-11-27T18:57:24.087Z,2.60
2017-11-27T18:59:51.574Z,1.97
2017-11-27T19:02:19.854Z,2.53
2017-11-27T19:04:48.102Z,2.47
2017-11-27T19:07:15.646Z,3.00
2017-11-27T19:09:43.131Z,2.13
2017-11-27T19:12:10.616Z,2.03
2017-11-27T19:14:38.134Z,2.40
2017-11-27T19:17:06.388Z,2.10
2017-11-27T19:19:33.918Z,2.47
2017-11-27T19:22:01.399Z,2.53
2017-11-27T19:24:28.950Z,2.10
2017-11-27T19:26:56.479Z,3.00
2017-11-27T19:29:24.006Z,2.00
2017-11-27T19:31:51.494Z,2.60
2017-11-27T19:34:19.010Z,2.00
2017-11-27T19:36:46.520Z,2.20
2017-11-27T19:39:14.047Z,2.73
2017-11-27T19:41:42.311Z,2.33
2017-11-27T19:44:09.811Z,2.60
2017-11-27T19:46:37.339Z,2.40
2017-11-27T19:49:04.817Z,2.40
2017-11-27T19:51:32.406Z,3.20
2017-11-27T19:53:59.895Z,2.67
2017-11-27T19:56:27.418Z,2.40
2017-11-27T19:58:54.907Z,3.13
2017-11-27T20:01:22.486Z,2.00
2017-11-27T20:03:49.985Z,2.13
2017-11-27T20:06:18.236Z,2.13
2017-11-27T20:08:45.752Z,2.67
2017-11-27T20:11:13.249Z,2.40
2017-11-27T20:13:40.840Z,2.20
2017-11-27T20:16:08.353Z,2.10
2017-11-27T20:18:35.832Z,2.30
2017-11-27T20:21:04.079Z,1.97
2017-11-27T20:23:31.590Z,2.00
2017-11-27T20:25:59.846Z,2.33
2017-11-27T20:28:27.355Z,1.87
2017-11-27T20:30:55.610Z,1.80
2017-11-27T20:33:23.113Z,2.93
2017-11-27T20:35:51.369Z,2.30
2017-11-27T20:38:18.916Z,2.37
2017-11-27T20:40:46.417Z,1.63
2017-11-27T20:43:13.934Z,2.20
2017-11-27T20:45:41.430Z,3.13
2017-11-27T20:48:08.931Z,2.10
2017-11-27T20:50:37.211Z,1.90
2017-11-27T20:53:04.706Z,2.10
2017-11-27T20:55:32.978Z,2.93
2017-11-27T20:58:00.463Z,1.90
2017-11-27T21:00:28.750Z,2.50
2017-11-27T21:02:57.019Z,1.90
2017-11-27T21:05:24.538Z,2.33
2017-11-27T21:07:52.038Z,2.63
2017-11-27T21:10:19.570Z,1.90
2017-11-27T21:12:47.825Z,3.23
2017-11-27T21:15:15.302Z,2.70
2017-11-27T21:17:42.811Z,2.20
2017-11-27T21:20:10.294Z,2.40
2017-11-27T21:22:37.826Z,2.73
2017-11-27T21:25:06.082Z,2.27
2017-11-27T21:27:33.583Z,2.23
2017-11-27T21:30:01.979Z,1.67
2017-11-27T21:32:30.249Z,2.43
2017-11-27T21:34:57.774Z,1.70
2017-11-27T21:37:25.270Z,1.90
2017-11-27T21:39:52.783Z,2.00
2017-11-27T21:42:21.050Z,2.17
2017-11-27T21:44:48.531Z,2.57
2017-11-27T21:47:16.052Z,1.93
2017-11-27T21:49:43.570Z,1.73
2017-11-27T21:52:11.060Z,2.20
2017-11-27T21:54:39.347Z,2.47
2017-11-27T21:57:07.601Z,1.73
2017-11-27T21:59:35.086Z,2.43
2017-11-27T22:02:02.597Z,2.10
2017-11-27T22:04:30.109Z,2.30
2017-11-27T22:06:57.611Z,3.40
2017-11-27T22:09:25.111Z,2.60
2017-11-27T22:11:52.617Z,2.10
2017-11-27T22:14:20.165Z,2.00
2017-11-27T22:16:47.698Z,2.30
2017-11-27T22:19:15.950Z,2.87
2017-11-27T22:21:43.435Z,3.97
2017-11-27T22:24:10.954Z,2.80
2017-11-27T22:26:38.449Z,3.03
2017-11-27T22:29:05.956Z,2.70
2017-11-27T22:31:33.459Z,3.60
2017-11-27T22:34:01.738Z,4.40
2017-11-27T22:36:30.010Z,3.20
2017-11-27T22:38:57.578Z,2.17
2017-11-27T22:41:25.843Z,1.53
2017-11-27T22:43:53.330Z,1.47
2017-11-27T22:46:20.846Z,2.00
2017-11-27T22:48:48.325Z,1.63
2017-11-27T22:51:15.858Z,1.70
2017-11-27T22:53:44.118Z,1.73
2017-11-27T22:56:11.658Z,2.03
2017-11-27T22:58:39.142Z,1.20
2017-11-27T23:01:06.632Z,1.80
2017-11-27T23:03:34.156Z,1.57
2017-11-27T23:06:01.668Z,1.60
2017-11-27T23:08:29.175Z,1.10
2017-11-27T23:10:56.680Z,2.40
2017-11-27T23:13:24.213Z,1.90
2017-11-27T23:15:51.714Z,1.73
2017-11-27T23:18:19.227Z,1.60
2017-11-27T23:20:46.715Z,2.20
2017-11-27T23:23:14.271Z,2.30
2017-11-27T23:25:41.759Z,2.17
2017-11-27T23:28:09.238Z,2.53
2017-11-27T23:30:36.742Z,2.73
2017-11-27T23:33:04.232Z,2.30
2017-11-27T23:35:31.743Z,3.27
2017-11-27T23:37:59.226Z,3.20
2017-11-27T23:40:27.594Z,3.43
2017-11-27T23:42:55.079Z,3.63
2017-11-27T23:45:22.583Z,3.20
2017-11-27T23:47:50.077Z,3.90
2017-11-27T23:50:17.591Z,3.80
2017-11-27T23:52:45.079Z,4.97
2017-11-27T23:55:12.590Z,4.50
2017-11-27T23:57:40.093Z,3.60
